sensor_id;sensor_type;location;lat;lon;timestamp;temperature;humidity
44671;DHT22;48397;53.016;-2.260;2022-08-04T00:00:39;15.10;99.90
44671;DHT22;48397;53.016;-2.260;2022-08-04T00:09:16;14.90;99.90
44671;DHT22;48397;53.016;-2.260;2022-08-04T00:11:48;15.00;99.90
44671;DHT22;48397;53.016;-2.260;2022-08-04T00:14:18;14.90;99.90
44671;DHT22;48397;53.016;-2.260;2022-08-04T00:16:49;15.00;99.90
44671;DHT22;48397;53.016;-2.260;2022-08-04T00:19:35;14.90;99.90
44671;DHT22;48397;53.016;-2.260;2022-08-04T00:22:10;14.90;99.90
44671;DHT22;48397;53.016;-2.260;2022-08-04T00:24:38;14.90;99.90
44671;DHT22;48397;53.016;-2.260;2022-08-04T00:27:07;14.90;99.90
44671;DHT22;48397;53.016;-2.260;2022-08-04T00:29:37;14.90;99.90
44671;DHT22;48397;53.016;-2.260;2022-08-04T00:32:07;14.90;99.90
44671;DHT22;48397;53.016;-2.260;2022-08-04T00:34:35;14.90;99.90
44671;DHT22;48397;53.016;-2.260;2022-08-04T00:37:05;14.80;99.90
44671;DHT22;48397;53.016;-2.260;2022-08-04T00:39:33;14.80;99.90
44671;DHT22;48397;53.016;-2.260;2022-08-04T00:50:34;14.60;99.90
44671;DHT22;48397;53.016;-2.260;2022-08-04T00:53:34;14.70;99.90
44671;DHT22;48397;53.016;-2.260;2022-08-04T01:01:58;14.60;99.90
44671;DHT22;48397;53.016;-2.260;2022-08-04T01:04:49;14.60;99.90
44671;DHT22;48397;53.016;-2.260;2022-08-04T01:10:42;14.50;99.90
44671;DHT22;48397;53.016;-2.260;2022-08-04T01:13:28;14.50;99.90
44671;DHT22;48397;53.016;-2.260;2022-08-04T01:16:06;14.40;99.90
44671;DHT22;48397;53.016;-2.260;2022-08-04T01:29:50;13.90;99.90
44671;DHT22;48397;53.016;-2.260;2022-08-04T01:35:45;13.90;99.90
44671;DHT22;48397;53.016;-2.260;2022-08-04T01:38:25;13.90;99.90
44671;DHT22;48397;53.016;-2.260;2022-08-04T01:41:06;14.00;99.90
44671;DHT22;48397;53.016;-2.260;2022-08-04T01:43:36;14.10;99.90
44671;DHT22;48397;53.016;-2.260;2022-08-04T01:46:13;14.20;99.90
44671;DHT22;48397;53.016;-2.260;2022-08-04T01:48:46;14.30;99.90
44671;DHT22;48397;53.016;-2.260;2022-08-04T01:51:14;14.30;99.90
44671;DHT22;48397;53.016;-2.260;2022-08-04T01:53:43;14.50;99.90
44671;DHT22;48397;53.016;-2.260;2022-08-04T01:56:12;14.60;99.90
44671;DHT22;48397;53.016;-2.260;2022-08-04T01:58:40;14.60;99.90
44671;DHT22;48397;53.016;-2.260;2022-08-04T02:01:10;14.70;99.90
44671;DHT22;48397;53.016;-2.260;2022-08-04T02:06:40;14.90;99.90
44671;DHT22;48397;53.016;-2.260;2022-08-04T02:12:08;15.00;99.90
44671;DHT22;48397;53.016;-2.260;2022-08-04T02:21:02;15.20;99.90
44671;DHT22;48397;53.016;-2.260;2022-08-04T02:26:24;15.20;99.90
44671;DHT22;48397;53.016;-2.260;2022-08-04T02:32:03;15.20;99.90
44671;DHT22;48397;53.016;-2.260;2022-08-04T02:37:20;15.10;99.90
44671;DHT22;48397;53.016;-2.260;2022-08-04T02:39:52;15.00;99.90
44671;DHT22;48397;53.016;-2.260;2022-08-04T02:42:20;14.90;99.90
44671;DHT22;48397;53.016;-2.260;2022-08-04T02:44:50;14.80;99.90
44671;DHT22;48397;53.016;-2.260;2022-08-04T02:47:21;14.70;99.90
44671;DHT22;48397;53.016;-2.260;2022-08-04T02:50:11;14.70;99.90
44671;DHT22;48397;53.016;-2.260;2022-08-04T02:52:57;14.70;99.90
44671;DHT22;48397;53.016;-2.260;2022-08-04T02:55:28;14.70;99.90
44671;DHT22;48397;53.016;-2.260;2022-08-04T02:58:02;14.50;99.90
44671;DHT22;48397;53.016;-2.260;2022-08-04T03:00:31;14.70;99.90
44671;DHT22;48397;53.016;-2.260;2022-08-04T03:23:42;14.70;99.90
44671;DHT22;48397;53.016;-2.260;2022-08-04T03:56:08;14.90;99.90
44671;DHT22;48397;53.016;-2.260;2022-08-04T04:21:28;14.90;99.90
44671;DHT22;48397;53.016;-2.260;2022-08-04T04:29:29;14.60;99.90
44671;DHT22;48397;53.016;-2.260;2022-08-04T04:32:37;14.60;99.90
44671;DHT22;48397;53.016;-2.260;2022-08-04T04:35:32;14.40;99.90
44671;DHT22;48397;53.016;-2.260;2022-08-04T04:49:43;14.30;99.90
44671;DHT22;48397;53.016;-2.260;2022-08-04T04:52:39;14.30;99.90
44671;DHT22;48397;53.016;-2.260;2022-08-04T04:55:25;14.30;99.90
44671;DHT22;48397;53.016;-2.260;2022-08-04T04:57:57;14.30;99.90
44671;DHT22;48397;53.016;-2.260;2022-08-04T05:09:31;14.60;99.90
44671;DHT22;48397;53.016;-2.260;2022-08-04T05:15:13;14.70;99.90
44671;DHT22;48397;53.016;-2.260;2022-08-04T05:17:50;14.70;99.90
44671;DHT22;48397;53.016;-2.260;2022-08-04T05:20:23;14.60;99.90
44671;DHT22;48397;53.016;-2.260;2022-08-04T05:22:59;14.70;99.90
44671;DHT22;48397;53.016;-2.260;2022-08-04T05:25:42;14.70;99.90
44671;DHT22;48397;53.016;-2.260;2022-08-04T05:28:55;14.80;99.90
44671;DHT22;48397;53.016;-2.260;2022-08-04T05:31:28;14.80;99.90
44671;DHT22;48397;53.016;-2.260;2022-08-04T05:34:02;14.80;99.90
44671;DHT22;48397;53.016;-2.260;2022-08-04T05:36:41;14.90;99.90
44671;DHT22;48397;53.016;-2.260;2022-08-04T05:39:27;14.90;99.90
44671;DHT22;48397;53.016;-2.260;2022-08-04T05:42:03;15.00;99.90
44671;DHT22;48397;53.016;-2.260;2022-08-04T05:44:35;15.00;99.90
44671;DHT22;48397;53.016;-2.260;2022-08-04T05:47:10;15.10;99.90
44671;DHT22;48397;53.016;-2.260;2022-08-04T05:49:39;15.20;99.90
44671;DHT22;48397;53.016;-2.260;2022-08-04T05:52:09;15.10;99.90
44671;DHT22;48397;53.016;-2.260;2022-08-04T05:54:41;15.10;99.90
44671;DHT22;48397;53.016;-2.260;2022-08-04T05:59:39;15.10;99.90
44671;DHT22;48397;53.016;-2.260;2022-08-04T06:02:09;15.20;99.90
44671;DHT22;48397;53.016;-2.260;2022-08-04T06:04:40;15.20;99.90
44671;DHT22;48397;53.016;-2.260;2022-08-04T06:07:09;15.30;99.90
44671;DHT22;48397;53.016;-2.260;2022-08-04T06:09:42;15.30;99.90
44671;DHT22;48397;53.016;-2.260;2022-08-04T06:12:16;15.20;99.90
44671;DHT22;48397;53.016;-2.260;2022-08-04T06:14:48;15.10;99.90
44671;DHT22;48397;53.016;-2.260;2022-08-04T06:17:23;15.20;99.90
44671;DHT22;48397;53.016;-2.260;2022-08-04T06:20:13;15.20;99.90
44671;DHT22;48397;53.016;-2.260;2022-08-04T06:22:52;15.20;99.90
44671;DHT22;48397;53.016;-2.260;2022-08-04T06:25:28;15.20;99.90
44671;DHT22;48397;53.016;-2.260;2022-08-04T06:27:58;15.30;99.90
44671;DHT22;48397;53.016;-2.260;2022-08-04T06:30:29;15.30;99.90
44671;DHT22;48397;53.016;-2.260;2022-08-04T06:32:59;15.40;99.90
44671;DHT22;48397;53.016;-2.260;2022-08-04T06:35:32;15.40;99.90
44671;DHT22;48397;53.016;-2.260;2022-08-04T06:38:01;15.50;99.90
44671;DHT22;48397;53.016;-2.260;2022-08-04T06:40:30;15.50;99.90
44671;DHT22;48397;53.016;-2.260;2022-08-04T06:43:03;15.50;99.90
44671;DHT22;48397;53.016;-2.260;2022-08-04T06:45:34;15.50;99.90
44671;DHT22;48397;53.016;-2.260;2022-08-04T06:48:05;15.50;99.90
44671;DHT22;48397;53.016;-2.260;2022-08-04T06:50:34;15.30;99.90
44671;DHT22;48397;53.016;-2.260;2022-08-04T06:53:22;15.10;99.90
44671;DHT22;48397;53.016;-2.260;2022-08-04T06:55:53;15.10;99.90
44671;DHT22;48397;53.016;-2.260;2022-08-04T06:58:22;15.10;99.90
44671;DHT22;48397;53.016;-2.260;2022-08-04T07:00:51;15.30;99.90
44671;DHT22;48397;53.016;-2.260;2022-08-04T07:03:20;15.20;99.90
44671;DHT22;48397;53.016;-2.260;2022-08-04T07:05:50;15.40;99.90
44671;DHT22;48397;53.016;-2.260;2022-08-04T07:08:19;15.50;99.90
44671;DHT22;48397;53.016;-2.260;2022-08-04T07:10:49;15.40;99.90
44671;DHT22;48397;53.016;-2.260;2022-08-04T07:13:20;15.50;99.90
44671;DHT22;48397;53.016;-2.260;2022-08-04T07:15:49;15.60;99.90
44671;DHT22;48397;53.016;-2.260;2022-08-04T07:18:17;15.50;99.90
44671;DHT22;48397;53.016;-2.260;2022-08-04T07:20:45;15.50;99.90
44671;DHT22;48397;53.016;-2.260;2022-08-04T07:25:54;15.30;99.90
44671;DHT22;48397;53.016;-2.260;2022-08-04T07:28:38;15.20;99.90
44671;DHT22;48397;53.016;-2.260;2022-08-04T07:31:10;15.10;99.90
44671;DHT22;48397;53.016;-2.260;2022-08-04T07:33:59;15.20;99.90
44671;DHT22;48397;53.016;-2.260;2022-08-04T07:36:49;15.30;99.90
44671;DHT22;48397;53.016;-2.260;2022-08-04T07:39:20;15.30;99.90
44671;DHT22;48397;53.016;-2.260;2022-08-04T07:41:57;15.30;99.90
44671;DHT22;48397;53.016;-2.260;2022-08-04T07:44:29;15.40;99.90
44671;DHT22;48397;53.016;-2.260;2022-08-04T07:47:00;15.50;99.90
44671;DHT22;48397;53.016;-2.260;2022-08-04T07:49:28;15.50;99.90
44671;DHT22;48397;53.016;-2.260;2022-08-04T07:52:16;15.50;99.90
44671;DHT22;48397;53.016;-2.260;2022-08-04T07:54:44;15.60;99.90
44671;DHT22;48397;53.016;-2.260;2022-08-04T07:57:15;15.70;99.90
44671;DHT22;48397;53.016;-2.260;2022-08-04T08:00:05;15.90;99.90
44671;DHT22;48397;53.016;-2.260;2022-08-04T08:02:38;15.90;99.90
44671;DHT22;48397;53.016;-2.260;2022-08-04T08:05:11;15.90;99.90
44671;DHT22;48397;53.016;-2.260;2022-08-04T08:07:47;15.90;99.90
44671;DHT22;48397;53.016;-2.260;2022-08-04T08:10:21;15.90;99.90
44671;DHT22;48397;53.016;-2.260;2022-08-04T08:12:51;16.00;99.90
44671;DHT22;48397;53.016;-2.260;2022-08-04T08:15:19;16.00;99.90
44671;DHT22;48397;53.016;-2.260;2022-08-04T08:22:57;16.30;99.90
44671;DHT22;48397;53.016;-2.260;2022-08-04T08:25:26;16.20;99.90
44671;DHT22;48397;53.016;-2.260;2022-08-04T08:27:55;16.30;99.90
44671;DHT22;48397;53.016;-2.260;2022-08-04T08:30:24;16.40;99.90
44671;DHT22;48397;53.016;-2.260;2022-08-04T08:33:04;16.40;99.90
44671;DHT22;48397;53.016;-2.260;2022-08-04T08:36:00;16.30;99.90
44671;DHT22;48397;53.016;-2.260;2022-08-04T08:38:41;16.60;99.90
44671;DHT22;48397;53.016;-2.260;2022-08-04T08:53:26;16.70;99.90
44671;DHT22;48397;53.016;-2.260;2022-08-04T08:56:25;16.60;99.90
44671;DHT22;48397;53.016;-2.260;2022-08-04T09:05:12;16.60;99.90
44671;DHT22;48397;53.016;-2.260;2022-08-04T09:10:49;16.70;99.90
44671;DHT22;48397;53.016;-2.260;2022-08-04T09:16:24;16.90;99.90
44671;DHT22;48397;53.016;-2.260;2022-08-04T09:19:32;16.80;99.90
44671;DHT22;48397;53.016;-2.260;2022-08-04T09:22:17;16.90;99.90
44671;DHT22;48397;53.016;-2.260;2022-08-04T09:27:53;16.80;99.90
44671;DHT22;48397;53.016;-2.260;2022-08-04T09:30:46;17.00;99.90
44671;DHT22;48397;53.016;-2.260;2022-08-04T09:34:08;17.10;99.90
44671;DHT22;48397;53.016;-2.260;2022-08-04T09:36:30;17.10;99.90
44671;DHT22;48397;53.016;-2.260;2022-08-04T09:39:23;17.30;99.90
44671;DHT22;48397;53.016;-2.260;2022-08-04T09:47:46;17.80;99.90
44671;DHT22;48397;53.016;-2.260;2022-08-04T09:56:53;17.40;99.90
44671;DHT22;48397;53.016;-2.260;2022-08-04T10:02:02;17.60;99.90
44671;DHT22;48397;53.016;-2.260;2022-08-04T10:04:34;17.90;99.90
44671;DHT22;48397;53.016;-2.260;2022-08-04T10:12:30;18.20;99.90
44671;DHT22;48397;53.016;-2.260;2022-08-04T10:15:07;18.50;99.90
44671;DHT22;48397;53.016;-2.260;2022-08-04T10:17:59;18.70;99.90
44671;DHT22;48397;53.016;-2.260;2022-08-04T10:20:41;18.80;99.90
44671;DHT22;48397;53.016;-2.260;2022-08-04T10:26:28;18.90;99.90
44671;DHT22;48397;53.016;-2.260;2022-08-04T10:29:08;18.50;99.90
44671;DHT22;48397;53.016;-2.260;2022-08-04T10:31:43;18.50;99.90
44671;DHT22;48397;53.016;-2.260;2022-08-04T10:34:18;18.40;99.90
44671;DHT22;48397;53.016;-2.260;2022-08-04T10:36:58;18.30;99.90
44671;DHT22;48397;53.016;-2.260;2022-08-04T10:39:36;18.40;99.90
44671;DHT22;48397;53.016;-2.260;2022-08-04T10:42:43;18.50;99.90
44671;DHT22;48397;53.016;-2.260;2022-08-04T10:45:18;18.60;99.90
44671;DHT22;48397;53.016;-2.260;2022-08-04T10:48:12;18.90;99.90
44671;DHT22;48397;53.016;-2.260;2022-08-04T10:54:07;19.20;99.90
44671;DHT22;48397;53.016;-2.260;2022-08-04T10:56:41;19.30;99.90
44671;DHT22;48397;53.016;-2.260;2022-08-04T10:59:25;19.20;99.90
44671;DHT22;48397;53.016;-2.260;2022-08-04T11:02:00;19.10;99.90
44671;DHT22;48397;53.016;-2.260;2022-08-04T11:04:48;18.80;99.90
44671;DHT22;48397;53.016;-2.260;2022-08-04T11:07:20;18.80;99.90
44671;DHT22;48397;53.016;-2.260;2022-08-04T11:09:49;18.80;99.90
44671;DHT22;48397;53.016;-2.260;2022-08-04T11:12:24;18.60;99.90
44671;DHT22;48397;53.016;-2.260;2022-08-04T11:15:39;18.50;99.90
44671;DHT22;48397;53.016;-2.260;2022-08-04T11:17:47;18.40;99.90
44671;DHT22;48397;53.016;-2.260;2022-08-04T11:20:34;18.30;99.90
44671;DHT22;48397;53.016;-2.260;2022-08-04T11:23:12;18.30;99.90
44671;DHT22;48397;53.016;-2.260;2022-08-04T11:31:27;18.00;99.90
44671;DHT22;48397;53.016;-2.260;2022-08-04T11:37:27;17.80;99.90
44671;DHT22;48397;53.016;-2.260;2022-08-04T11:39:32;17.60;99.90
44671;DHT22;48397;53.016;-2.260;2022-08-04T11:42:15;17.80;99.90
44671;DHT22;48397;53.016;-2.260;2022-08-04T11:44:48;17.80;99.90
44671;DHT22;48397;53.016;-2.260;2022-08-04T11:50:24;18.90;99.90
44671;DHT22;48397;53.016;-2.260;2022-08-04T11:52:56;19.10;99.90
44671;DHT22;48397;53.016;-2.260;2022-08-04T11:55:26;18.80;99.90
44671;DHT22;48397;53.016;-2.260;2022-08-04T11:57:55;18.60;99.90
44671;DHT22;48397;53.016;-2.260;2022-08-04T12:00:26;18.60;99.90
44671;DHT22;48397;53.016;-2.260;2022-08-04T12:03:31;18.10;99.90
44671;DHT22;48397;53.016;-2.260;2022-08-04T12:12:19;19.10;99.90
44671;DHT22;48397;53.016;-2.260;2022-08-04T12:17:42;19.60;99.90
44671;DHT22;48397;53.016;-2.260;2022-08-04T12:20:23;19.60;99.90
44671;DHT22;48397;53.016;-2.260;2022-08-04T12:23:21;20.10;99.90
44671;DHT22;48397;53.016;-2.260;2022-08-04T12:25:55;20.00;99.90
44671;DHT22;48397;53.016;-2.260;2022-08-04T12:28:35;19.60;99.90
44671;DHT22;48397;53.016;-2.260;2022-08-04T12:31:50;19.60;99.90
44671;DHT22;48397;53.016;-2.260;2022-08-04T12:34:31;18.90;99.90
44671;DHT22;48397;53.016;-2.260;2022-08-04T12:39:35;19.60;99.90
44671;DHT22;48397;53.016;-2.260;2022-08-04T12:42:35;19.70;99.90
44671;DHT22;48397;53.016;-2.260;2022-08-04T12:45:26;20.00;99.90
44671;DHT22;48397;53.016;-2.260;2022-08-04T12:47:57;20.60;99.90
44671;DHT22;48397;53.016;-2.260;2022-08-04T12:50:28;20.50;99.90
44671;DHT22;48397;53.016;-2.260;2022-08-04T12:52:56;20.70;99.90
44671;DHT22;48397;53.016;-2.260;2022-08-04T12:55:32;20.60;99.90
44671;DHT22;48397;53.016;-2.260;2022-08-04T12:58:12;21.10;99.90
44671;DHT22;48397;53.016;-2.260;2022-08-04T13:00:56;20.50;99.90
44671;DHT22;48397;53.016;-2.260;2022-08-04T13:03:28;19.90;99.90
44671;DHT22;48397;53.016;-2.260;2022-08-04T13:05:57;19.60;99.90
44671;DHT22;48397;53.016;-2.260;2022-08-04T13:08:24;19.70;99.90
44671;DHT22;48397;53.016;-2.260;2022-08-04T13:10:58;19.70;99.90
44671;DHT22;48397;53.016;-2.260;2022-08-04T13:13:28;20.30;99.90
44671;DHT22;48397;53.016;-2.260;2022-08-04T13:16:01;21.00;99.90
44671;DHT22;48397;53.016;-2.260;2022-08-04T13:18:33;20.90;99.90
44671;DHT22;48397;53.016;-2.260;2022-08-04T13:21:16;20.90;99.90
44671;DHT22;48397;53.016;-2.260;2022-08-04T13:23:56;20.90;99.90
44671;DHT22;48397;53.016;-2.260;2022-08-04T13:26:57;21.40;99.90
44671;DHT22;48397;53.016;-2.260;2022-08-04T13:29:35;21.00;99.90
44671;DHT22;48397;53.016;-2.260;2022-08-04T13:32:24;20.90;99.90
44671;DHT22;48397;53.016;-2.260;2022-08-04T13:34:55;19.70;99.90
44671;DHT22;48397;53.016;-2.260;2022-08-04T13:37:28;19.20;99.90
44671;DHT22;48397;53.016;-2.260;2022-08-04T13:39:59;19.20;99.90
44671;DHT22;48397;53.016;-2.260;2022-08-04T13:42:33;18.80;99.90
44671;DHT22;48397;53.016;-2.260;2022-08-04T13:45:03;18.80;99.90
44671;DHT22;48397;53.016;-2.260;2022-08-04T13:47:38;18.80;99.90
44671;DHT22;48397;53.016;-2.260;2022-08-04T13:50:43;18.80;99.90
44671;DHT22;48397;53.016;-2.260;2022-08-04T13:53:03;18.80;99.90
44671;DHT22;48397;53.016;-2.260;2022-08-04T13:55:33;18.60;99.90
44671;DHT22;48397;53.016;-2.260;2022-08-04T13:58:04;18.70;99.90
44671;DHT22;48397;53.016;-2.260;2022-08-04T14:00:42;18.90;99.90
44671;DHT22;48397;53.016;-2.260;2022-08-04T14:03:15;19.00;99.90
44671;DHT22;48397;53.016;-2.260;2022-08-04T14:06:17;20.10;99.90
44671;DHT22;48397;53.016;-2.260;2022-08-04T14:08:48;21.10;99.90
44671;DHT22;48397;53.016;-2.260;2022-08-04T14:11:40;21.40;99.90
44671;DHT22;48397;53.016;-2.260;2022-08-04T14:14:29;21.50;99.90
44671;DHT22;48397;53.016;-2.260;2022-08-04T14:17:09;21.60;98.10
44671;DHT22;48397;53.016;-2.260;2022-08-04T14:25:00;20.50;99.40
44671;DHT22;48397;53.016;-2.260;2022-08-04T14:30:29;19.60;99.00
44671;DHT22;48397;53.016;-2.260;2022-08-04T14:33:06;19.60;99.80
44671;DHT22;48397;53.016;-2.260;2022-08-04T14:35:58;19.70;99.30
44671;DHT22;48397;53.016;-2.260;2022-08-04T14:38:56;20.30;98.60
44671;DHT22;48397;53.016;-2.260;2022-08-04T14:41:29;21.10;98.60
44671;DHT22;48397;53.016;-2.260;2022-08-04T14:44:01;21.90;97.40
44671;DHT22;48397;53.016;-2.260;2022-08-04T14:46:30;22.10;96.90
44671;DHT22;48397;53.016;-2.260;2022-08-04T14:49:11;21.50;96.60
44671;DHT22;48397;53.016;-2.260;2022-08-04T14:51:44;20.80;97.50
44671;DHT22;48397;53.016;-2.260;2022-08-04T14:54:14;20.30;97.60
44671;DHT22;48397;53.016;-2.260;2022-08-04T14:56:54;20.40;97.80
44671;DHT22;48397;53.016;-2.260;2022-08-04T14:59:22;20.60;97.60
44671;DHT22;48397;53.016;-2.260;2022-08-04T15:01:52;20.80;97.80
44671;DHT22;48397;53.016;-2.260;2022-08-04T15:04:28;21.20;97.00
44671;DHT22;48397;53.016;-2.260;2022-08-04T15:06:59;21.20;96.50
44671;DHT22;48397;53.016;-2.260;2022-08-04T15:09:32;20.80;96.80
44671;DHT22;48397;53.016;-2.260;2022-08-04T15:12:02;20.20;97.10
44671;DHT22;48397;53.016;-2.260;2022-08-04T15:14:32;20.20;98.20
44671;DHT22;48397;53.016;-2.260;2022-08-04T15:17:05;20.90;95.90
44671;DHT22;48397;53.016;-2.260;2022-08-04T15:19:54;21.40;94.80
44671;DHT22;48397;53.016;-2.260;2022-08-04T15:22:23;17.80;94.40
44671;DHT22;48397;53.016;-2.260;2022-08-04T15:24:51;22.30;93.60
44671;DHT22;48397;53.016;-2.260;2022-08-04T15:27:29;22.40;93.00
44671;DHT22;48397;53.016;-2.260;2022-08-04T15:30:04;22.50;92.90
44671;DHT22;48397;53.016;-2.260;2022-08-04T15:32:34;22.50;92.80
44671;DHT22;48397;53.016;-2.260;2022-08-04T15:35:12;22.60;92.20
44671;DHT22;48397;53.016;-2.260;2022-08-04T15:38:08;23.10;91.50
44671;DHT22;48397;53.016;-2.260;2022-08-04T15:40:50;23.10;91.90
44671;DHT22;48397;53.016;-2.260;2022-08-04T15:46:08;23.30;91.60
44671;DHT22;48397;53.016;-2.260;2022-08-04T15:49:20;23.20;91.50
44671;DHT22;48397;53.016;-2.260;2022-08-04T15:52:06;23.10;90.10
44671;DHT22;48397;53.016;-2.260;2022-08-04T15:58:06;22.90;91.00
44671;DHT22;48397;53.016;-2.260;2022-08-04T16:08:58;23.40;87.80
44671;DHT22;48397;53.016;-2.260;2022-08-04T16:21:47;23.50;85.60
44671;DHT22;48397;53.016;-2.260;2022-08-04T16:24:29;23.40;84.40
44671;DHT22;48397;53.016;-2.260;2022-08-04T16:27:11;23.40;84.80
44671;DHT22;48397;53.016;-2.260;2022-08-04T16:29:41;23.20;85.20
44671;DHT22;48397;53.016;-2.260;2022-08-04T16:32:19;23.10;85.60
44671;DHT22;48397;53.016;-2.260;2022-08-04T16:35:00;22.80;84.40
44671;DHT22;48397;53.016;-2.260;2022-08-04T16:42:48;23.40;83.50
44671;DHT22;48397;53.016;-2.260;2022-08-04T16:45:18;23.50;82.20
44671;DHT22;48397;53.016;-2.260;2022-08-04T16:50:17;23.50;82.80
44671;DHT22;48397;53.016;-2.260;2022-08-04T16:52:52;22.90;85.50
44671;DHT22;48397;53.016;-2.260;2022-08-04T16:55:24;23.10;86.50
44671;DHT22;48397;53.016;-2.260;2022-08-04T16:57:56;23.40;82.80
44671;DHT22;48397;53.016;-2.260;2022-08-04T17:00:43;23.60;83.10
44671;DHT22;48397;53.016;-2.260;2022-08-04T17:03:11;23.50;83.50
44671;DHT22;48397;53.016;-2.260;2022-08-04T17:05:40;23.60;82.40
44671;DHT22;48397;53.016;-2.260;2022-08-04T17:08:08;23.50;82.60
44671;DHT22;48397;53.016;-2.260;2022-08-04T17:10:56;23.60;81.10
44671;DHT22;48397;53.016;-2.260;2022-08-04T17:13:33;23.60;80.90
44671;DHT22;48397;53.016;-2.260;2022-08-04T17:16:21;23.50;81.10
44671;DHT22;48397;53.016;-2.260;2022-08-04T17:18:52;23.30;80.70
44671;DHT22;48397;53.016;-2.260;2022-08-04T17:21:23;23.30;81.40
44671;DHT22;48397;53.016;-2.260;2022-08-04T17:23:55;23.50;81.10
44671;DHT22;48397;53.016;-2.260;2022-08-04T17:26:45;23.50;81.30
44671;DHT22;48397;53.016;-2.260;2022-08-04T17:29:22;23.50;80.50
44671;DHT22;48397;53.016;-2.260;2022-08-04T17:32:15;23.20;81.80
44671;DHT22;48397;53.016;-2.260;2022-08-04T17:34:55;23.40;81.70
44671;DHT22;48397;53.016;-2.260;2022-08-04T17:37:24;23.30;81.50
44671;DHT22;48397;53.016;-2.260;2022-08-04T17:40:12;23.20;81.90
44671;DHT22;48397;53.016;-2.260;2022-08-04T17:43:05;23.10;81.10
44671;DHT22;48397;53.016;-2.260;2022-08-04T17:46:22;23.10;81.90
44671;DHT22;48397;53.016;-2.260;2022-08-04T17:54:33;21.90;82.60
44671;DHT22;48397;53.016;-2.260;2022-08-04T17:57:16;21.50;83.10
44671;DHT22;48397;53.016;-2.260;2022-08-04T17:59:51;20.90;83.40
44671;DHT22;48397;53.016;-2.260;2022-08-04T18:02:29;20.50;84.20
44671;DHT22;48397;53.016;-2.260;2022-08-04T18:05:04;20.10;86.00
44671;DHT22;48397;53.016;-2.260;2022-08-04T18:07:39;20.00;86.40
44671;DHT22;48397;53.016;-2.260;2022-08-04T18:10:39;19.80;85.80
44671;DHT22;48397;53.016;-2.260;2022-08-04T18:13:25;19.60;86.70
44671;DHT22;48397;53.016;-2.260;2022-08-04T18:16:04;19.60;88.10
44671;DHT22;48397;53.016;-2.260;2022-08-04T18:19:09;19.70;87.30
44671;DHT22;48397;53.016;-2.260;2022-08-04T18:21:38;19.60;87.70
44671;DHT22;48397;53.016;-2.260;2022-08-04T18:24:27;19.40;87.90
44671;DHT22;48397;53.016;-2.260;2022-08-04T18:27:17;19.30;87.80
44671;DHT22;48397;53.016;-2.260;2022-08-04T18:29:45;19.20;88.40
44671;DHT22;48397;53.016;-2.260;2022-08-04T18:32:33;19.20;88.60
44671;DHT22;48397;53.016;-2.260;2022-08-04T18:35:02;19.10;89.00
44671;DHT22;48397;53.016;-2.260;2022-08-04T18:37:36;19.10;89.50
44671;DHT22;48397;53.016;-2.260;2022-08-04T18:40:24;18.80;90.30
44671;DHT22;48397;53.016;-2.260;2022-08-04T18:43:05;18.70;90.20
44671;DHT22;48397;53.016;-2.260;2022-08-04T18:48:02;18.70;90.60
44671;DHT22;48397;53.016;-2.260;2022-08-04T18:50:41;18.90;90.60
44671;DHT22;48397;53.016;-2.260;2022-08-04T18:53:29;18.90;90.70
44671;DHT22;48397;53.016;-2.260;2022-08-04T18:56:03;18.50;91.10
44671;DHT22;48397;53.016;-2.260;2022-08-04T18:58:46;18.10;91.80
44671;DHT22;48397;53.016;-2.260;2022-08-04T19:01:15;17.70;92.70
44671;DHT22;48397;53.016;-2.260;2022-08-04T19:03:44;17.50;93.20
44671;DHT22;48397;53.016;-2.260;2022-08-04T19:06:20;17.30;93.60
44671;DHT22;48397;53.016;-2.260;2022-08-04T19:08:53;17.20;94.10
44671;DHT22;48397;53.016;-2.260;2022-08-04T19:11:21;16.90;94.30
44671;DHT22;48397;53.016;-2.260;2022-08-04T19:14:09;16.90;94.80
44671;DHT22;48397;53.016;-2.260;2022-08-04T19:16:40;16.80;95.20
44671;DHT22;48397;53.016;-2.260;2022-08-04T19:19:13;16.70;95.70
44671;DHT22;48397;53.016;-2.260;2022-08-04T19:21:44;16.40;96.10
44671;DHT22;48397;53.016;-2.260;2022-08-04T19:24:29;16.40;96.90
44671;DHT22;48397;53.016;-2.260;2022-08-04T19:27:03;16.40;97.50
44671;DHT22;48397;53.016;-2.260;2022-08-04T19:29:52;16.20;98.30
44671;DHT22;48397;53.016;-2.260;2022-08-04T19:32:20;16.20;99.40
44671;DHT22;48397;53.016;-2.260;2022-08-04T19:34:50;16.10;99.90
44671;DHT22;48397;53.016;-2.260;2022-08-04T19:37:19;16.00;99.90
44671;DHT22;48397;53.016;-2.260;2022-08-04T19:40:08;16.00;99.90
44671;DHT22;48397;53.016;-2.260;2022-08-04T19:42:37;15.80;99.90
44671;DHT22;48397;53.016;-2.260;2022-08-04T19:45:08;15.80;99.90
44671;DHT22;48397;53.016;-2.260;2022-08-04T19:47:42;15.70;99.90
44671;DHT22;48397;53.016;-2.260;2022-08-04T19:50:31;17.00;99.90
44671;DHT22;48397;53.016;-2.260;2022-08-04T19:53:01;15.40;99.90
44671;DHT22;48397;53.016;-2.260;2022-08-04T19:55:46;15.40;99.90
44671;DHT22;48397;53.016;-2.260;2022-08-04T19:58:17;15.20;99.90
44671;DHT22;48397;53.016;-2.260;2022-08-04T20:00:53;15.30;99.90
44671;DHT22;48397;53.016;-2.260;2022-08-04T20:03:21;15.10;99.90
44671;DHT22;48397;53.016;-2.260;2022-08-04T20:06:09;15.10;99.90
44671;DHT22;48397;53.016;-2.260;2022-08-04T20:08:37;15.00;99.90
44671;DHT22;48397;53.016;-2.260;2022-08-04T20:11:15;14.80;99.90
44671;DHT22;48397;53.016;-2.260;2022-08-04T20:13:45;14.80;99.90
44671;DHT22;48397;53.016;-2.260;2022-08-04T20:16:22;14.70;99.90
44671;DHT22;48397;53.016;-2.260;2022-08-04T20:18:57;14.70;99.90
44671;DHT22;48397;53.016;-2.260;2022-08-04T20:21:31;14.60;99.90
44671;DHT22;48397;53.016;-2.260;2022-08-04T20:27:09;14.50;99.90
44671;DHT22;48397;53.016;-2.260;2022-08-04T20:29:44;14.50;99.90
44671;DHT22;48397;53.016;-2.260;2022-08-04T20:32:21;14.40;99.90
44671;DHT22;48397;53.016;-2.260;2022-08-04T20:34:50;14.30;99.90
44671;DHT22;48397;53.016;-2.260;2022-08-04T20:37:22;14.20;99.90
44671;DHT22;48397;53.016;-2.260;2022-08-04T20:39:55;14.30;99.90
44671;DHT22;48397;53.016;-2.260;2022-08-04T20:42:24;14.20;99.90
44671;DHT22;48397;53.016;-2.260;2022-08-04T20:45:01;14.10;99.90
44671;DHT22;48397;53.016;-2.260;2022-08-04T20:47:30;14.10;99.90
44671;DHT22;48397;53.016;-2.260;2022-08-04T20:50:04;14.10;99.90
44671;DHT22;48397;53.016;-2.260;2022-08-04T20:52:36;14.00;99.90
44671;DHT22;48397;53.016;-2.260;2022-08-04T20:55:05;13.90;99.90
44671;DHT22;48397;53.016;-2.260;2022-08-04T20:57:33;13.90;99.90
44671;DHT22;48397;53.016;-2.260;2022-08-04T21:00:20;13.90;99.90
44671;DHT22;48397;53.016;-2.260;2022-08-04T21:02:59;13.80;99.90
44671;DHT22;48397;53.016;-2.260;2022-08-04T21:05:28;13.70;99.90
44671;DHT22;48397;53.016;-2.260;2022-08-04T21:07:58;13.70;99.90
44671;DHT22;48397;53.016;-2.260;2022-08-04T21:10:26;13.70;99.90
44671;DHT22;48397;53.016;-2.260;2022-08-04T21:12:54;13.50;99.90
44671;DHT22;48397;53.016;-2.260;2022-08-04T21:15:22;13.40;99.90